Time;durP1;ratioP1;P1;durP2;ratioP2;P2;SDS_P1;SDS_P2;PMS_P1;PMS_P2;Temp;Humidity;BMP_temperature;BMP_pressure;BME280_temperature;BME280_humidity;BME280_pressure;Samples;Min_cycle;Max_cycle;Signal;HPM_P1;HPM_P2
2023/07/15 00:02:08;;;;;;;;;;;;;;;21.53;59.68;97803.34;7371017;19;19915;-70
2023/07/15 00:04:35;;;;;;;;;;;;;;;21.62;59.72;97803.81;7369060;19;19919;-70
2023/07/15 00:07:05;;;;;;;;;;;;;;;21.69;59.16;97805.25;7368516;19;19922;-70
2023/07/15 00:09:33;;;;;;;;;;;;;;;21.70;58.89;97808.78;7360058;19;20360;-70
2023/07/15 00:12:00;;;;;;;;;;;;;;;21.63;59.54;97803.53;7368719;19;19929;-70
2023/07/15 00:14:30;;;;;;;;;;;;;;;21.49;59.29;97812.97;7366396;19;19931;-70
2023/07/15 00:16:57;;;;;;;;;;;;;;;21.32;60.26;97804.78;7371712;19;20001;-70
2023/07/15 00:19:24;;;;;;;;;;;;;;;21.30;61.25;97808.78;7366364;19;19915;-70
2023/07/15 00:21:50;;;;;;;;;;;;;;;21.34;61.40;97810.75;7365944;19;19949;-70
2023/07/15 00:24:17;;;;;;;;;;;;;;;21.20;60.31;97810.22;7367931;19;19940;-70
2023/07/15 00:26:47;;;;;;;;;;;;;;;21.09;61.38;97805.69;7369255;19;19970;-70
2023/07/15 00:29:16;;;;;;;;;;;;;;;20.93;61.72;97807.25;7368146;19;20317;-69
2023/07/15 00:31:43;;;;;;;;;;;;;;;21.03;61.47;97812.81;7367488;19;19923;-69
2023/07/15 00:34:10;;;;;;;;;;;;;;;21.08;61.10;97808.59;7364636;19;19926;-69
2023/07/15 00:36:37;;;;;;;;;;;;;;;21.13;61.42;97812.22;7366242;19;19922;-69
2023/07/15 00:39:05;;;;;;;;;;;;;;;21.04;61.65;97814.47;7363930;19;19922;-70
2023/07/15 00:41:32;;;;;;;;;;;;;;;21.09;61.54;97816.44;7358153;19;19957;-70
2023/07/15 00:44:14;;;;;;;;;;;;;;;21.10;62.10;97811.88;7369786;19;20739;-70
2023/07/15 00:46:44;;;;;;;;;;;;;;;20.89;62.79;97811.44;7367126;19;20348;-70
2023/07/15 00:49:11;;;;;;;;;;;;;;;20.91;63.17;97809.34;7368852;19;19915;-70
2023/07/15 00:51:38;;;;;;;;;;;;;;;20.92;63.28;97813.66;7361207;19;19922;-70
2023/07/15 00:54:05;;;;;;;;;;;;;;;20.93;63.21;97809.94;7366944;19;19929;-70
2023/07/15 00:56:32;;;;;;;;;;;;;;;20.89;63.09;97816.00;7359338;19;20336;-70
2023/07/15 00:59:02;;;;;;;;;;;;;;;20.86;63.16;97813.78;7367198;19;19911;-70
2023/07/15 01:01:28;;;;;;;;;;;;;;;20.93;63.91;97811.78;7362318;19;19927;-69
2023/07/15 01:03:56;;;;;;;;;;;;;;;20.87;65.42;97815.41;7366669;19;20321;-69
2023/07/15 01:06:23;;;;;;;;;;;;;;;20.63;66.16;97817.31;7364074;19;20533;-69
2023/07/15 01:08:50;;;;;;;;;;;;;;;20.66;64.99;97816.84;7367112;19;19931;-69
2023/07/15 01:11:17;;;;;;;;;;;;;;;20.55;64.42;97821.97;7362152;19;19959;-69
2023/07/15 01:13:43;;;;;;;;;;;;;;;20.58;64.13;97820.69;7361044;19;20467;-69
2023/07/15 01:16:12;;;;;;;;;;;;;;;20.71;64.02;97819.63;7364587;19;19919;-69
2023/07/15 01:18:40;;;;;;;;;;;;;;;20.69;63.66;97824.41;7366704;19;19927;-69
2023/07/15 01:21:07;;;;;;;;;;;;;;;20.78;63.75;97812.28;7370426;19;19943;-69
2023/07/15 01:23:34;;;;;;;;;;;;;;;20.79;62.98;97813.91;7364050;19;19914;-69
2023/07/15 01:26:01;;;;;;;;;;;;;;;20.67;63.36;97813.09;7365496;19;19949;-70
2023/07/15 01:28:27;;;;;;;;;;;;;;;20.42;63.23;97821.34;7356310;19;20279;-69
2023/07/15 01:30:58;;;;;;;;;;;;;;;20.58;63.10;97818.00;7361840;19;19958;-70
2023/07/15 01:33:25;;;;;;;;;;;;;;;20.58;63.24;97818.00;7363705;19;19937;-69
2023/07/15 01:35:52;;;;;;;;;;;;;;;20.46;62.96;97817.97;7365919;19;19923;-69
2023/07/15 01:38:19;;;;;;;;;;;;;;;20.60;62.96;97810.53;7367296;19;19925;-69
2023/07/15 01:40:46;;;;;;;;;;;;;;;20.54;62.93;97809.59;7364249;19;19946;-70
2023/07/15 01:43:13;;;;;;;;;;;;;;;20.44;63.77;97805.81;7369023;19;19919;-70
2023/07/15 01:45:39;;;;;;;;;;;;;;;20.57;63.76;97800.25;7364631;19;19923;-70
2023/07/15 01:48:07;;;;;;;;;;;;;;;20.52;63.71;97803.59;7358449;19;19922;-70
2023/07/15 01:50:37;;;;;;;;;;;;;;;20.52;63.49;97803.59;7364510;19;19980;-69
2023/07/15 01:53:04;;;;;;;;;;;;;;;20.63;63.32;97806.56;7368415;19;19919;-69
2023/07/15 01:55:31;;;;;;;;;;;;;;;20.58;63.37;97804.56;7363829;19;19947;-69
2023/07/15 01:57:58;;;;;;;;;;;;;;;20.73;63.62;97804.09;7366735;19;20035;-69
2023/07/15 02:00:25;;;;;;;;;;;;;;;20.79;62.53;97801.28;7362080;19;19921;-70
2023/07/15 02:02:52;;;;;;;;;;;;;;;20.75;62.05;97796.63;7364919;19;19914;-70
2023/07/15 02:05:18;;;;;;;;;;;;;;;20.78;62.34;97793.47;7363183;19;19939;-70
2023/07/15 02:07:46;;;;;;;;;;;;;;;20.74;62.22;97793.09;7363336;19;20474;-70
2023/07/15 02:10:13;;;;;;;;;;;;;;;20.61;62.39;97783.41;7363576;19;19922;-69
2023/07/15 02:12:40;;;;;;;;;;;;;;;20.56;62.56;97780.63;7353949;19;20382;-69
2023/07/15 02:15:07;;;;;;;;;;;;;;;20.57;63.30;97789.50;7347743;19;19929;-70
2023/07/15 02:17:35;;;;;;;;;;;;;;;20.46;63.97;97785.72;7360613;19;20008;-70
2023/07/15 02:20:05;;;;;;;;;;;;;;;20.58;64.46;97781.19;7367668;19;20336;-70
2023/07/15 02:22:32;;;;;;;;;;;;;;;20.66;62.91;97789.97;7359910;19;20294;-70
2023/07/15 02:24:59;;;;;;;;;;;;;;;20.55;63.42;97787.03;7372682;19;19923;-70
2023/07/15 02:27:26;;;;;;;;;;;;;;;20.58;64.23;97783.88;7367470;19;19922;-70
2023/07/15 02:29:53;;;;;;;;;;;;;;;20.60;63.43;97778.28;7370626;19;19919;-70
2023/07/15 02:32:36;;;;;;;;;;;;;;;20.59;63.04;97782.84;7365909;19;19919;-70
2023/07/15 02:35:03;;;;;;;;;;;;;;;20.48;63.96;97775.53;7371203;19;20006;-70
2023/07/15 02:37:31;;;;;;;;;;;;;;;20.22;65.42;97767.94;7366909;19;19923;-70
2023/07/15 02:39:58;;;;;;;;;;;;;;;20.31;65.59;97775.44;7367766;19;19918;-70
2023/07/15 02:42:25;;;;;;;;;;;;;;;20.34;65.10;97777.66;7369054;19;19923;-69
2023/07/15 02:44:52;;;;;;;;;;;;;;;20.33;66.05;97776.03;7372258;19;19921;-69
2023/07/15 02:47:18;;;;;;;;;;;;;;;20.38;65.40;97778.84;7368476;19;19926;-70
2023/07/15 02:49:45;;;;;;;;;;;;;;;20.38;65.54;97778.84;7372530;19;19937;-69
2023/07/15 02:52:12;;;;;;;;;;;;;;;20.34;65.50;97780.34;7364449;19;19987;-70
2023/07/15 02:54:38;;;;;;;;;;;;;;;20.41;65.22;97788.31;7367071;19;20358;-70
2023/07/15 02:57:05;;;;;;;;;;;;;;;20.37;64.98;97787.13;7374027;19;19919;-70
2023/07/15 02:59:33;;;;;;;;;;;;;;;20.29;65.51;97777.53;7370948;19;20016;-70
2023/07/15 03:02:00;;;;;;;;;;;;;;;20.30;66.08;97778.34;7368927;19;19923;-69
2023/07/15 03:04:27;;;;;;;;;;;;;;;20.20;65.99;97772.75;7371393;19;20325;-69
2023/07/15 03:06:55;;;;;;;;;;;;;;;20.20;65.99;97778.94;7374365;19;19929;-70
2023/07/15 03:09:22;;;;;;;;;;;;;;;20.25;65.78;97786.28;7365257;19;20260;-70
2023/07/15 03:11:48;;;;;;;;;;;;;;;20.16;64.95;97778.56;7366164;19;19919;-70
2023/07/15 03:14:16;;;;;;;;;;;;;;;20.12;64.56;97777.41;7369395;19;19978;-70
2023/07/15 03:16:43;;;;;;;;;;;;;;;20.08;64.50;97778.91;7371967;19;20390;-69
2023/07/15 03:19:11;;;;;;;;;;;;;;;20.18;64.55;97786.41;7373733;19;19953;-69
2023/07/15 03:21:38;;;;;;;;;;;;;;;20.27;64.85;97779.63;7363742;19;19926;-69
2023/07/15 03:24:05;;;;;;;;;;;;;;;20.25;64.55;97780.91;7370179;19;19918;-69
2023/07/15 03:26:32;;;;;;;;;;;;;;;19.98;64.98;97777.84;7365429;19;19911;-69
2023/07/15 03:28:59;;;;;;;;;;;;;;;20.23;65.21;97774.97;7368673;19;19929;-69
2023/07/15 03:31:26;;;;;;;;;;;;;;;19.96;65.14;97778.09;7362295;19;20507;-69
2023/07/15 03:33:53;;;;;;;;;;;;;;;20.10;64.93;97771.44;7367937;19;19926;-70
2023/07/15 03:36:20;;;;;;;;;;;;;;;20.00;66.30;97779.25;7369315;19;20267;-69
2023/07/15 03:38:47;;;;;;;;;;;;;;;20.16;65.50;97777.75;7371061;19;19922;-70
2023/07/15 03:41:13;;;;;;;;;;;;;;;20.07;65.21;97774.59;7364740;19;19918;-69
2023/07/15 03:43:40;;;;;;;;;;;;;;;20.15;65.08;97774.25;7360313;19;19919;-69
2023/07/15 03:46:07;;;;;;;;;;;;;;;20.01;66.11;97778.22;7370896;19;19918;-69
2023/07/15 03:48:33;;;;;;;;;;;;;;;20.08;64.59;97781.59;7367743;19;19923;-69
2023/07/15 03:51:01;;;;;;;;;;;;;;;20.09;64.73;97777.88;7372982;19;19929;-70
2023/07/15 03:53:28;;;;;;;;;;;;;;;20.23;64.61;97783.84;7365738;19;19925;-71
2023/07/15 03:55:55;;;;;;;;;;;;;;;20.12;64.55;97780.09;7374747;19;19923;-70
2023/07/15 03:58:21;;;;;;;;;;;;;;;20.12;65.18;97779.28;7365536;19;19915;-70
2023/07/15 04:00:48;;;;;;;;;;;;;;;20.14;65.45;97777.16;7367634;19;19919;-69
2023/07/15 04:03:15;;;;;;;;;;;;;;;20.11;65.52;97773.06;7365554;19;19949;-69
2023/07/15 04:05:41;;;;;;;;;;;;;;;20.03;63.80;97772.59;7366255;19;20344;-69
2023/07/15 04:08:08;;;;;;;;;;;;;;;20.21;65.09;97769.00;7372130;19;20823;-69
2023/07/15 04:10:35;;;;;;;;;;;;;;;20.23;66.53;97761.53;7366743;19;19915;-69
2023/07/15 04:13:02;;;;;;;;;;;;;;;20.35;65.74;97762.34;7369743;19;19919;-69
2023/07/15 04:15:32;;;;;;;;;;;;;;;20.40;64.09;97765.16;7357012;19;19930;-69
2023/07/15 04:17:58;;;;;;;;;;;;;;;20.49;64.62;97763.75;7366235;19;19923;-70
2023/07/15 04:20:25;;;;;;;;;;;;;;;20.48;65.00;97766.69;7365084;19;20241;-70
2023/07/15 04:22:52;;;;;;;;;;;;;;;20.49;64.47;97762.97;7369928;19;20245;-70
2023/07/15 04:25:18;;;;;;;;;;;;;;;20.54;64.79;97765.78;7363671;19;20018;-69
2023/07/15 04:27:45;;;;;;;;;;;;;;;20.68;63.52;97767.16;7371760;19;19919;-70
2023/07/15 04:30:12;;;;;;;;;;;;;;;20.69;63.64;97768.78;7368082;19;19923;-69
2023/07/15 04:32:39;;;;;;;;;;;;;;;20.92;62.29;97762.56;7361926;19;19922;-69
2023/07/15 04:35:06;;;;;;;;;;;;;;;20.90;63.04;97758.47;7359522;19;19914;-69
2023/07/15 04:37:32;;;;;;;;;;;;;;;20.95;64.07;97758.59;7362743;19;20300;-69
2023/07/15 04:40:00;;;;;;;;;;;;;;;21.03;63.67;97753.66;7366098;19;19915;-69
2023/07/15 04:42:27;;;;;;;;;;;;;;;21.12;62.96;97756.81;7361007;19;19919;-69
2023/07/15 04:44:54;;;;;;;;;;;;;;;21.20;62.41;97747.53;7368354;19;19929;-69
2023/07/15 04:47:20;;;;;;;;;;;;;;;21.27;61.58;97749.03;7380271;19;20006;-69
2023/07/15 04:49:47;;;;;;;;;;;;;;;21.34;61.96;97748.88;7351591;19;19914;-69
2023/07/15 04:52:14;;;;;;;;;;;;;;;21.46;60.81;97747.00;7374418;19;20261;-69
2023/07/15 04:54:41;;;;;;;;;;;;;;;21.58;60.81;97746.09;7370254;19;19918;-69
2023/07/15 04:57:08;;;;;;;;;;;;;;;21.68;60.00;97748.97;7372676;19;20347;-70
2023/07/15 04:59:35;;;;;;;;;;;;;;;21.67;60.92;97755.44;7365403;19;20538;-69
2023/07/15 05:02:02;;;;;;;;;;;;;;;21.76;60.26;97762.03;7369408;19;19944;-69
2023/07/15 05:04:29;;;;;;;;;;;;;;;21.86;61.15;97759.53;7363340;19;20272;-70
2023/07/15 05:06:56;;;;;;;;;;;;;;;21.90;59.70;97759.84;7363790;19;20345;-70
2023/07/15 05:09:22;;;;;;;;;;;;;;;22.05;59.11;97760.09;7363166;19;20240;-70
2023/07/15 05:11:49;;;;;;;;;;;;;;;22.08;59.59;97761.50;7370037;19;19922;-70
2023/07/15 05:14:16;;;;;;;;;;;;;;;22.19;58.92;97760.63;7363980;19;21220;-70
2023/07/15 05:16:43;;;;;;;;;;;;;;;22.26;59.26;97763.97;7364466;19;20204;-68
2023/07/15 05:19:09;;;;;;;;;;;;;;;22.37;59.85;97769.53;7364508;19;19919;-67
2023/07/15 05:21:36;;;;;;;;;;;;;;;22.41;59.21;97762.56;7364602;19;19918;-67
2023/07/15 05:24:03;;;;;;;;;;;;;;;22.45;59.85;97766.41;7366501;19;19974;-67
2023/07/15 05:26:30;;;;;;;;;;;;;;;22.49;59.73;97762.16;7362687;19;20357;-67
2023/07/15 05:28:56;;;;;;;;;;;;;;;22.47;60.15;97757.00;7367950;19;19919;-68
2023/07/15 05:31:23;;;;;;;;;;;;;;;22.53;59.85;97764.09;7359099;19;19922;-67
2023/07/15 05:33:50;;;;;;;;;;;;;;;22.62;59.07;97766.38;7367113;19;19926;-67
2023/07/15 05:36:17;;;;;;;;;;;;;;;22.71;58.62;97763.00;7369330;19;19919;-67
2023/07/15 05:38:43;;;;;;;;;;;;;;;22.82;58.00;97761.25;7364969;19;19929;-67
2023/07/15 05:41:11;;;;;;;;;;;;;;;22.86;59.58;97767.81;7364450;19;20700;-67
2023/07/15 05:43:39;;;;;;;;;;;;;;;22.89;59.58;97764.59;7362780;19;19918;-69
2023/07/15 05:46:06;;;;;;;;;;;;;;;22.94;59.37;97761.97;7367827;19;20313;-71
2023/07/15 05:48:32;;;;;;;;;;;;;;;23.03;57.83;97758.84;7361564;19;20234;-71
2023/07/15 05:50:59;;;;;;;;;;;;;;;23.11;57.57;97763.81;7365633;19;19935;-71
2023/07/15 05:53:26;;;;;;;;;;;;;;;23.21;58.01;97759.34;7368940;19;20427;-71
2023/07/15 05:55:52;;;;;;;;;;;;;;;23.31;58.08;97769.44;7368399;19;19929;-68
2023/07/15 05:58:22;;;;;;;;;;;;;;;23.35;58.51;97773.25;7367526;19;19919;-67
2023/07/15 06:00:51;;;;;;;;;;;;;;;23.50;55.52;97775.31;7370637;19;19922;-68
2023/07/15 06:03:18;;;;;;;;;;;;;;;23.62;57.04;97761.69;7376845;19;22356;-68
2023/07/15 06:05:45;;;;;;;;;;;;;;;23.71;55.28;97753.94;7375701;19;19923;-68
2023/07/15 06:08:11;;;;;;;;;;;;;;;23.87;56.58;97742.22;7373425;19;19970;-68
2023/07/15 06:10:38;;;;;;;;;;;;;;;23.95;55.48;97744.44;7369085;19;19922;-69
2023/07/15 06:13:05;;;;;;;;;;;;;;;24.38;54.59;97752.59;7369803;19;19918;-68
2023/07/15 06:15:31;;;;;;;;;;;;;;;24.65;52.44;97747.16;7367683;19;19934;-69
2023/07/15 06:17:59;;;;;;;;;;;;;;;24.83;50.92;97749.41;7373019;19;20352;-68
2023/07/15 06:20:26;;;;;;;;;;;;;;;25.03;50.69;97747.84;7367999;19;19954;-68
2023/07/15 06:22:53;;;;;;;;;;;;;;;25.23;49.95;97739.84;7371867;19;20647;-69
2023/07/15 06:25:20;;;;;;;;;;;;;;;25.42;50.00;97731.22;7372588;19;19918;-69
2023/07/15 06:27:47;;;;;;;;;;;;;;;25.63;49.34;97730.19;7369933;19;19959;-68
2023/07/15 06:30:14;;;;;;;;;;;;;;;25.63;51.32;97731.00;7373115;19;19930;-69
2023/07/15 06:32:40;;;;;;;;;;;;;;;25.77;47.84;97717.72;7369356;19;19926;-68
2023/07/15 06:35:07;;;;;;;;;;;;;;;26.12;48.22;97709.88;7376584;19;19930;-68
2023/07/15 06:37:35;;;;;;;;;;;;;;;26.21;46.37;97709.06;7371102;19;19919;-69
2023/07/15 06:40:03;;;;;;;;;;;;;;;26.45;45.33;97703.06;7371102;19;19919;-69
2023/07/15 06:42:30;;;;;;;;;;;;;;;26.55;45.41;97703.06;7366506;19;19978;-68
2023/07/15 06:44:57;;;;;;;;;;;;;;;26.72;45.63;97694.59;7371359;19;19918;-70
2023/07/15 06:47:24;;;;;;;;;;;;;;;26.93;45.55;97704.28;7364079;19;19919;-68
2023/07/15 06:49:51;;;;;;;;;;;;;;;26.94;45.86;97705.09;7374443;19;20676;-67
2023/07/15 06:52:17;;;;;;;;;;;;;;;27.21;44.83;97703.91;7373436;19;19918;-67
2023/07/15 06:54:44;;;;;;;;;;;;;;;27.27;44.46;97689.22;7370681;19;21213;-67
2023/07/15 06:57:11;;;;;;;;;;;;;;;27.28;44.93;97691.66;7375117;19;20354;-67
2023/07/15 06:59:37;;;;;;;;;;;;;;;27.43;45.24;97688.00;7369562;19;19921;-67
2023/07/15 07:02:04;;;;;;;;;;;;;;;27.47;42.92;97702.66;7370796;19;19915;-67
2023/07/15 07:04:31;;;;;;;;;;;;;;;27.76;42.71;97696.50;7366599;19;19918;-67
2023/07/15 07:06:57;;;;;;;;;;;;;;;27.91;43.35;97698.28;7373176;19;19919;-67
2023/07/15 07:09:24;;;;;;;;;;;;;;;28.09;42.75;97694.88;7371652;19;20214;-67
2023/07/15 07:11:51;;;;;;;;;;;;;;;28.17;43.31;97696.16;7371740;19;19923;-68
2023/07/15 07:14:18;;;;;;;;;;;;;;;28.24;41.14;97693.91;7375110;19;19921;-68
2023/07/15 07:16:45;;;;;;;;;;;;;;;28.24;41.29;97693.91;7367773;19;19953;-69
2023/07/15 07:19:11;;;;;;;;;;;;;;;28.31;41.33;97702.56;7371666;19;19919;-68
2023/07/15 07:21:39;;;;;;;;;;;;;;;28.44;40.23;97688.31;7363906;19;19918;-68
2023/07/15 07:24:05;;;;;;;;;;;;;;;28.52;41.99;97686.06;7373456;19;19930;-67
2023/07/15 07:26:32;;;;;;;;;;;;;;;28.64;40.25;97687.25;7371318;19;19937;-67
2023/07/15 07:28:59;;;;;;;;;;;;;;;28.75;39.84;97681.69;7373907;19;20783;-69
2023/07/15 07:31:26;;;;;;;;;;;;;;;28.87;39.51;97696.50;7368500;19;19915;-68
2023/07/15 07:33:52;;;;;;;;;;;;;;;29.00;39.97;97692.25;7369296;19;19923;-68
2023/07/15 07:36:19;;;;;;;;;;;;;;;29.16;39.56;97695.63;7369276;19;19934;-68
2023/07/15 07:38:46;;;;;;;;;;;;;;;29.23;39.29;97704.25;7363670;19;19915;-68
2023/07/15 07:41:12;;;;;;;;;;;;;;;29.42;40.29;97698.00;7372736;19;20358;-70
2023/07/15 07:43:40;;;;;;;;;;;;;;;29.44;39.88;97701.25;7367657;19;19922;-68
2023/07/15 07:46:08;;;;;;;;;;;;;;;29.54;39.85;97715.53;7371321;19;19929;-68
2023/07/15 07:48:35;;;;;;;;;;;;;;;29.66;39.97;97708.84;7367925;19;19934;-69
2023/07/15 07:51:02;;;;;;;;;;;;;;;29.61;39.07;97706.97;7368045;19;19986;-68
2023/07/15 07:53:29;;;;;;;;;;;;;;;29.70;38.16;97707.97;7367125;19;19951;-69
2023/07/15 07:55:55;;;;;;;;;;;;;;;29.86;36.51;97707.69;7369638;19;19923;-69
2023/07/15 07:58:22;;;;;;;;;;;;;;;29.69;39.05;97709.03;7373165;19;19939;-68
2023/07/15 08:00:49;;;;;;;;;;;;;;;29.75;39.73;97698.88;7367920;19;20840;-69
2023/07/15 08:03:16;;;;;;;;;;;;;;;29.89;38.72;97707.94;7371727;19;19935;-69
2023/07/15 08:05:43;;;;;;;;;;;;;;;29.96;40.16;97697.44;7364963;19;19919;-69
2023/07/15 08:08:10;;;;;;;;;;;;;;;30.19;38.48;97692.13;7368714;19;19919;-69
2023/07/15 08:10:37;;;;;;;;;;;;;;;30.28;38.74;97695.00;7353231;19;19915;-69
2023/07/15 08:13:05;;;;;;;;;;;;;;;30.40;38.11;97692.59;7364454;19;19926;-69
2023/07/15 08:15:32;;;;;;;;;;;;;;;30.55;38.07;97689.59;7366693;19;19926;-68
2023/07/15 08:18:00;;;;;;;;;;;;;;;30.60;37.21;97684.03;7370778;19;20268;-69
2023/07/15 08:20:29;;;;;;;;;;;;;;;30.91;36.92;97686.16;7368230;19;19914;-69
2023/07/15 08:22:56;;;;;;;;;;;;;;;31.15;35.87;97691.41;7368938;19;19915;-69
2023/07/15 08:25:23;;;;;;;;;;;;;;;31.09;36.13;97691.81;7371032;19;19936;-69
2023/07/15 08:27:51;;;;;;;;;;;;;;;31.24;35.25;97686.00;7364714;19;19911;-69
2023/07/15 08:30:19;;;;;;;;;;;;;;;31.33;36.37;97689.63;7364965;19;19923;-67
2023/07/15 08:32:45;;;;;;;;;;;;;;;31.45;35.57;97695.38;7363972;19;19926;-69
2023/07/15 08:35:13;;;;;;;;;;;;;;;31.38;36.49;97694.19;7341097;19;19985;-67
2023/07/15 08:37:40;;;;;;;;;;;;;;;31.35;35.50;97697.50;7370558;19;19918;-67
2023/07/15 08:40:07;;;;;;;;;;;;;;;31.33;36.28;97699.75;7373164;19;19927;-69
2023/07/15 08:42:35;;;;;;;;;;;;;;;31.34;36.39;97691.25;7364601;19;19952;-68
2023/07/15 08:45:02;;;;;;;;;;;;;;;31.30;35.83;97692.97;7364791;19;19914;-69
2023/07/15 08:47:28;;;;;;;;;;;;;;;31.30;34.64;97687.50;7359739;19;20496;-69
2023/07/15 08:49:55;;;;;;;;;;;;;;;31.43;34.56;97692.16;7367227;19;19919;-69
2023/07/15 08:52:22;;;;;;;;;;;;;;;31.53;35.79;97698.50;7366685;19;20820;-69
2023/07/15 08:54:52;;;;;;;;;;;;;;;31.66;34.65;97694.91;7361813;19;20862;-70
2023/07/15 08:57:20;;;;;;;;;;;;;;;31.60;35.09;97690.69;7367922;19;19926;-70
2023/07/15 08:59:47;;;;;;;;;;;;;;;31.82;34.56;97698.09;7358333;19;19957;-69
2023/07/15 09:02:14;;;;;;;;;;;;;;;31.95;34.53;97694.50;7363215;19;19923;-69
2023/07/15 09:04:41;;;;;;;;;;;;;;;32.23;33.10;97691.59;7362497;19;19919;-69
2023/07/15 09:07:08;;;;;;;;;;;;;;;32.17;35.29;97688.19;7370658;19;20309;-70
2023/07/15 09:09:37;;;;;;;;;;;;;;;32.44;33.32;97692.69;7366429;19;20279;-70
2023/07/15 09:12:04;;;;;;;;;;;;;;;32.62;32.68;97690.84;7365817;19;19919;-69
2023/07/15 09:14:31;;;;;;;;;;;;;;;32.79;32.51;97684.63;7366484;19;19922;-70
2023/07/15 09:16:59;;;;;;;;;;;;;;;32.77;32.96;97684.13;7361925;19;19923;-70
2023/07/15 09:19:28;;;;;;;;;;;;;;;32.85;32.50;97679.81;7366931;19;19915;-70
2023/07/15 09:22:05;;;;;;;;;;;;;;;32.89;32.34;97669.81;7366107;19;19918;-69
2023/07/15 09:24:33;;;;;;;;;;;;;;;32.54;32.15;97675.19;7360974;19;19959;-71
2023/07/15 09:27:00;;;;;;;;;;;;;;;32.64;30.97;97668.63;7365967;19;19932;-70
2023/07/15 09:29:27;;;;;;;;;;;;;;;32.49;33.28;97667.13;7374695;19;19922;-71
2023/07/15 09:31:54;;;;;;;;;;;;;;;32.66;31.74;97671.84;7373783;19;20790;-69
2023/07/15 09:34:21;;;;;;;;;;;;;;;32.67;33.63;97671.53;7369048;19;19937;-70
2023/07/15 09:36:48;;;;;;;;;;;;;;;32.01;33.22;97665.09;7370159;19;19968;-70
2023/07/15 09:39:15;;;;;;;;;;;;;;;31.75;36.37;97670.34;7375308;19;19926;-70
2023/07/15 09:41:42;;;;;;;;;;;;;;;31.90;33.87;97670.78;7370742;19;19918;-70
2023/07/15 09:44:11;;;;;;;;;;;;;;;32.31;33.08;97666.22;7374360;19;19949;-70
2023/07/15 09:46:39;;;;;;;;;;;;;;;33.16;31.41;97669.56;7367266;19;19922;-69
2023/07/15 09:49:06;;;;;;;;;;;;;;;34.67;28.33;97665.16;7368986;19;20349;-69
2023/07/15 09:51:32;;;;;;;;;;;;;;;35.51;28.25;97663.31;7366587;19;19914;-70
2023/07/15 09:53:59;;;;;;;;;;;;;;;35.96;25.54;97659.84;7371327;19;20367;-69
2023/07/15 09:56:31;;;;;;;;;;;;;;;36.65;25.97;97662.97;7378239;19;20331;-69
2023/07/15 09:59:01;;;;;;;;;;;;;;;36.47;27.19;97659.63;7374754;19;20352;-70
2023/07/15 10:01:32;;;;;;;;;;;;;;;36.54;25.40;97659.84;7373100;19;19930;-70
2023/07/15 10:04:05;;;;;;;;;;;;;;;36.19;24.69;97654.78;7373080;19;19918;-70
2023/07/15 10:06:31;;;;;;;;;;;;;;;35.02;27.12;97660.28;7367359;19;19919;-71
2023/07/15 10:08:59;;;;;;;;;;;;;;;34.48;31.51;97651.81;7371835;19;19919;-68
2023/07/15 10:11:29;;;;;;;;;;;;;;;35.11;29.14;97652.00;7368104;19;19922;-70
2023/07/15 10:13:56;;;;;;;;;;;;;;;35.46;24.05;97646.22;7369534;19;19926;-69
2023/07/15 10:16:23;;;;;;;;;;;;;;;35.93;25.43;97643.22;7373317;19;19929;-69
2023/07/15 10:18:50;;;;;;;;;;;;;;;35.55;26.64;97650.53;7369320;19;20535;-69
2023/07/15 10:21:17;;;;;;;;;;;;;;;35.88;24.87;97632.41;7373589;19;19926;-69
2023/07/15 10:23:43;;;;;;;;;;;;;;;35.73;24.91;97640.19;7363221;19;19918;-68
2023/07/15 10:26:10;;;;;;;;;;;;;;;35.79;24.87;97622.31;7372669;19;19922;-68
2023/07/15 10:28:38;;;;;;;;;;;;;;;35.45;25.25;97626.19;7371685;19;19919;-69
2023/07/15 10:31:06;;;;;;;;;;;;;;;35.10;28.38;97628.38;7373398;19;19922;-68
2023/07/15 10:33:33;;;;;;;;;;;;;;;35.19;27.12;97629.13;7367674;19;19982;-70
2023/07/15 10:36:00;;;;;;;;;;;;;;;35.21;26.68;97629.63;7372470;19;19919;-71
2023/07/15 10:38:27;;;;;;;;;;;;;;;35.18;23.38;97630.28;7373053;19;19942;-68
2023/07/15 10:41:00;;;;;;;;;;;;;;;35.13;26.43;97636.78;7367375;19;20355;-68
2023/07/15 10:43:39;;;;;;;;;;;;;;;35.02;26.03;97627.31;7369716;19;20385;-69
2023/07/15 10:46:10;;;;;;;;;;;;;;;34.95;23.26;97613.28;7372548;19;20709;-68
2023/07/15 10:48:37;;;;;;;;;;;;;;;35.48;26.78;97608.19;7366913;19;20659;-69
2023/07/15 10:51:04;;;;;;;;;;;;;;;35.53;25.69;97608.78;7373248;19;19927;-69
2023/07/15 10:53:31;;;;;;;;;;;;;;;35.69;28.93;97599.94;7372679;19;19921;-69
2023/07/15 10:56:04;;;;;;;;;;;;;;;35.91;25.41;97601.47;7371350;19;19919;-70
2023/07/15 10:58:32;;;;;;;;;;;;;;;35.91;25.27;97595.97;7370556;19;19914;-69
2023/07/15 11:01:03;;;;;;;;;;;;;;;35.78;24.55;97606.94;7366792;19;20336;-69
2023/07/15 11:03:31;;;;;;;;;;;;;;;35.27;24.52;97611.75;7370848;19;19926;-69
2023/07/15 11:05:58;;;;;;;;;;;;;;;35.21;26.44;97609.56;7373462;19;19915;-69
2023/07/15 11:08:25;;;;;;;;;;;;;;;35.58;26.13;97607.81;7371750;19;19923;-69
2023/07/15 11:10:56;;;;;;;;;;;;;;;35.73;25.90;97603.59;7368362;19;20322;-70
2023/07/15 11:13:23;;;;;;;;;;;;;;;35.49;26.63;97602.34;7371874;19;19949;-68
2023/07/15 11:15:50;;;;;;;;;;;;;;;35.51;24.89;97604.75;7367910;19;19914;-69
2023/07/15 11:18:17;;;;;;;;;;;;;;;35.48;25.94;97603.50;7373334;19;19933;-69
2023/07/15 11:20:48;;;;;;;;;;;;;;;35.47;25.42;97606.56;7362135;19;20508;-68
2023/07/15 11:23:15;;;;;;;;;;;;;;;35.83;24.54;97597.66;7363313;19;20303;-69
2023/07/15 11:25:43;;;;;;;;;;;;;;;36.18;25.70;97589.84;7357811;19;20375;-71
2023/07/15 11:28:10;;;;;;;;;;;;;;;36.32;23.24;97581.25;7366726;19;19979;-70
2023/07/15 11:30:37;;;;;;;;;;;;;;;36.36;25.31;97584.88;7359520;19;20356;-69
2023/07/15 11:33:04;;;;;;;;;;;;;;;35.91;25.83;97584.94;7370610;19;19918;-69
2023/07/15 11:35:32;;;;;;;;;;;;;;;35.88;23.80;97569.91;7374653;19;20255;-69
2023/07/15 11:38:05;;;;;;;;;;;;;;;35.92;25.54;97572.81;7372240;19;19975;-70
2023/07/15 11:40:32;;;;;;;;;;;;;;;35.86;24.21;97565.91;7373195;19;20541;-69
2023/07/15 11:42:59;;;;;;;;;;;;;;;36.13;23.95;97564.50;7371436;19;20740;-71
2023/07/15 11:45:26;;;;;;;;;;;;;;;35.82;25.32;97555.59;7375124;19;19930;-70
2023/07/15 11:47:53;;;;;;;;;;;;;;;35.92;25.49;97557.09;7367114;19;19919;-71
2023/07/15 11:50:24;;;;;;;;;;;;;;;35.67;26.90;97556.22;7364864;19;19922;-71
2023/07/15 11:52:50;;;;;;;;;;;;;;;35.63;25.70;97565.50;7365093;19;19987;-70
2023/07/15 11:55:37;;;;;;;;;;;;;;;35.51;26.70;97555.25;7372857;19;20353;-69
2023/07/15 11:58:03;;;;;;;;;;;;;;;35.48;27.95;97547.69;7371586;19;19914;-70
2023/07/15 12:00:34;;;;;;;;;;;;;;;35.43;27.33;97528.63;7366150;19;19986;-69
2023/07/15 12:03:12;;;;;;;;;;;;;;;35.42;31.48;97532.50;7362009;19;19922;-69
2023/07/15 12:05:39;;;;;;;;;;;;;;;35.15;29.12;97523.72;7361407;19;19911;-69
2023/07/15 12:08:12;;;;;;;;;;;;;;;34.98;28.04;97527.41;7363917;19;19927;-69
2023/07/15 12:10:49;;;;;;;;;;;;;;;35.09;27.11;97522.34;7361565;19;19923;-69
2023/07/15 12:13:16;;;;;;;;;;;;;;;35.15;26.19;97518.22;7368963;19;19921;-69
2023/07/15 12:15:43;;;;;;;;;;;;;;;35.09;27.12;97511.34;7369933;19;19923;-69
2023/07/15 12:18:09;;;;;;;;;;;;;;;35.27;28.47;97507.28;7368929;19;20292;-68
2023/07/15 12:20:36;;;;;;;;;;;;;;;35.32;25.46;97500.75;7364820;19;19918;-69
2023/07/15 12:23:03;;;;;;;;;;;;;;;35.01;26.15;97504.75;7364970;19;19914;-70
2023/07/15 12:25:30;;;;;;;;;;;;;;;35.26;25.48;97500.19;7375858;19;20720;-70
2023/07/15 12:27:57;;;;;;;;;;;;;;;35.37;26.04;97495.06;7365293;19;19961;-69
2023/07/15 12:30:23;;;;;;;;;;;;;;;35.48;25.33;97484.41;7372961;19;19919;-68
2023/07/15 12:32:50;;;;;;;;;;;;;;;35.31;24.93;97477.97;7366385;19;20269;-68
2023/07/15 12:35:17;;;;;;;;;;;;;;;35.46;26.08;97475.69;7368148;19;19911;-69
2023/07/15 12:37:43;;;;;;;;;;;;;;;35.27;26.20;97473.47;7364855;19;19926;-70
2023/07/15 12:40:10;;;;;;;;;;;;;;;35.31;25.81;97464.22;7364900;19;20195;-70
2023/07/15 12:42:39;;;;;;;;;;;;;;;35.34;22.69;97455.28;7368567;19;19926;-69
2023/07/15 12:45:05;;;;;;;;;;;;;;;35.23;26.20;97445.03;7368944;19;20295;-70
2023/07/15 12:47:32;;;;;;;;;;;;;;;35.32;24.61;97438.31;7370419;19;20251;-70
2023/07/15 12:49:59;;;;;;;;;;;;;;;35.24;26.29;97441.97;7363877;19;19915;-70